Time,TemperatureF,DewpointF,PressureIn,WindDirection,WindDirectionDegrees,WindSpeedMPH,WindSpeedGustMPH,Humidity,HourlyPrecipIn,Conditions,Clouds,dailyrainin,SoftwareType,DateUTC
2013-09-02 00:04:00,64.2,56.4,28.92,North,0,0.0,0.0,76,0.00,,,0.00,WUHU216HW,2013-09-02 05:04:00,
2013-09-02 00:09:00,64.2,56.4,28.92,North,0,0.0,0.0,76,0.00,,,0.00,WUHU216HW,2013-09-02 05:09:00,
2013-09-02 00:14:00,64.0,56.3,28.92,North,0,0.0,0.0,76,0.00,,,0.00,WUHU216HW,2013-09-02 05:14:00,
2013-09-02 00:19:00,63.6,55.9,28.92,North,0,0.0,0.0,76,0.00,,,0.00,WUHU216HW,2013-09-02 05:19:00,
2013-09-02 00:24:00,63.3,55.9,28.92,North,0,0.0,0.0,77,0.00,,,0.00,WUHU216HW,2013-09-02 05:24:00,
2013-09-02 00:29:00,63.3,55.9,28.92,North,0,0.0,0.0,77,0.00,,,0.00,WUHU216HW,2013-09-02 05:29:00,
2013-09-02 00:34:00,63.1,56.1,28.92,North,0,0.0,0.0,78,0.00,,,0.00,WUHU216HW,2013-09-02 05:34:00,
2013-09-02 00:39:00,62.9,55.9,28.92,North,0,0.0,0.0,78,0.00,,,0.00,WUHU216HW,2013-09-02 05:39:00,
2013-09-02 00:44:00,62.7,55.7,28.92,North,0,0.0,0.0,78,0.00,,,0.00,WUHU216HW,2013-09-02 05:44:00,
2013-09-02 00:49:00,62.6,55.9,28.93,North,0,0.0,0.0,79,0.00,,,0.00,WUHU216HW,2013-09-02 05:49:00,
2013-09-02 00:55:00,62.6,55.9,28.93,North,0,0.0,0.0,79,0.00,,,0.00,WUHU216HW,2013-09-02 05:55:00,
2013-09-02 01:00:00,62.4,56.1,28.93,North,0,0.0,0.0,80,0.00,,,0.00,WUHU216HW,2013-09-02 06:00:00,
2013-09-02 01:05:00,62.4,56.1,28.93,North,0,0.0,0.0,80,0.00,,,0.00,WUHU216HW,2013-09-02 06:05:00,
2013-09-02 01:10:00,62.4,56.1,28.93,North,0,0.0,0.0,80,0.00,,,0.00,WUHU216HW,2013-09-02 06:10:00,
2013-09-02 01:15:00,62.2,55.9,28.93,North,0,0.0,0.0,80,0.00,,,0.00,WUHU216HW,2013-09-02 06:15:00,
2013-09-02 01:20:00,62.0,55.8,28.93,North,0,0.0,0.0,80,0.00,,,0.00,WUHU216HW,2013-09-02 06:20:00,
2013-09-02 01:25:00,61.8,55.6,28.93,North,0,0.0,0.0,80,0.00,,,0.00,WUHU216HW,2013-09-02 06:25:00,
2013-09-02 01:30:00,61.7,55.8,28.93,North,0,0.0,0.0,81,0.00,,,0.00,WUHU216HW,2013-09-02 06:30:00,
2013-09-02 01:35:00,61.5,55.6,28.93,North,0,0.0,0.0,81,0.00,,,0.00,WUHU216HW,2013-09-02 06:35:00,
2013-09-02 01:40:00,61.5,55.6,28.94,North,0,0.0,0.0,81,0.00,,,0.00,WUHU216HW,2013-09-02 06:40:00,
2013-09-02 01:45:00,61.3,55.4,28.93,North,0,0.0,0.0,81,0.00,,,0.00,WUHU216HW,2013-09-02 06:45:00,
2013-09-02 01:50:00,61.1,55.3,28.93,North,0,0.0,0.0,81,0.00,,,0.00,WUHU216HW,2013-09-02 06:50:00,
2013-09-02 01:55:00,60.9,55.1,28.94,North,0,0.0,0.0,81,0.00,,,0.00,WUHU216HW,2013-09-02 06:55:00,
2013-09-02 02:00:00,60.6,54.8,28.94,North,0,0.0,0.0,81,0.00,,,0.00,WUHU216HW,2013-09-02 07:00:00,
2013-09-02 02:06:00,60.6,55.1,28.94,North,0,0.0,0.0,82,0.00,,,0.00,WUHU216HW,2013-09-02 07:06:00,
2013-09-02 02:11:00,60.4,54.9,28.94,North,0,0.0,0.0,82,0.00,,,0.00,WUHU216HW,2013-09-02 07:11:00,
2013-09-02 02:16:00,60.2,54.7,28.94,North,0,0.0,0.0,82,0.00,,,0.00,WUHU216HW,2013-09-02 07:16:00,
2013-09-02 02:21:00,60.0,54.6,28.94,North,0,0.0,0.0,82,0.00,,,0.00,WUHU216HW,2013-09-02 07:21:00,
2013-09-02 02:26:00,59.9,54.4,28.93,North,0,0.0,0.0,82,0.00,,,0.00,WUHU216HW,2013-09-02 07:26:00,
2013-09-02 02:31:00,59.7,54.2,28.93,North,0,0.0,0.0,82,0.00,,,0.00,WUHU216HW,2013-09-02 07:31:00,
2013-09-02 02:36:00,59.5,54.0,28.93,North,0,0.0,0.0,82,0.00,,,0.00,WUHU216HW,2013-09-02 07:36:00,
2013-09-02 02:41:00,59.3,53.8,28.93,North,0,0.0,0.0,82,0.00,,,0.00,WUHU216HW,2013-09-02 07:41:00,
2013-09-02 02:46:00,59.3,53.8,28.93,North,0,0.0,0.0,82,0.00,,,0.00,WUHU216HW,2013-09-02 07:46:00,
2013-09-02 02:51:00,59.0,53.8,28.93,North,0,0.0,0.0,83,0.00,,,0.00,WUHU216HW,2013-09-02 07:51:00,
2013-09-02 02:56:00,58.8,53.6,28.94,North,0,0.0,0.0,83,0.00,,,0.00,WUHU216HW,2013-09-02 07:56:00,
2013-09-02 03:01:00,58.8,53.6,28.94,North,0,0.0,0.0,83,0.00,,,0.00,WUHU216HW,2013-09-02 08:01:00,
2013-09-02 03:06:00,58.8,53.6,28.94,North,0,0.0,0.0,83,0.00,,,0.00,WUHU216HW,2013-09-02 08:06:00,
2013-09-02 03:11:00,58.8,53.6,28.94,North,0,0.0,0.0,83,0.00,,,0.00,WUHU216HW,2013-09-02 08:11:00,
2013-09-02 03:16:00,58.8,53.6,28.94,North,0,0.0,0.0,83,0.00,,,0.00,WUHU216HW,2013-09-02 08:16:00,
2013-09-02 03:21:00,58.4,53.3,28.94,North,0,0.0,0.0,83,0.00,,,0.00,WUHU216HW,2013-09-02 08:21:00,
2013-09-02 03:26:00,58.2,53.1,28.95,North,0,0.0,0.0,83,0.00,,,0.00,WUHU216HW,2013-09-02 08:26:00,
2013-09-02 03:31:00,58.1,52.9,28.94,North,0,0.0,0.0,83,0.00,,,0.00,WUHU216HW,2013-09-02 08:31:00,
2013-09-02 03:37:00,57.9,52.7,28.94,North,0,0.0,0.0,83,0.00,,,0.00,WUHU216HW,2013-09-02 08:37:00,
2013-09-02 03:42:00,57.9,52.7,28.94,North,0,0.0,0.0,83,0.00,,,0.00,WUHU216HW,2013-09-02 08:42:00,
2013-09-02 03:47:00,57.7,52.5,28.95,North,0,0.0,0.0,83,0.00,,,0.00,WUHU216HW,2013-09-02 08:47:00,
2013-09-02 03:52:00,57.5,52.4,28.95,North,0,0.0,0.0,83,0.00,,,0.00,WUHU216HW,2013-09-02 08:52:00,
2013-09-02 03:57:00,57.3,52.5,28.95,North,0,0.0,0.0,84,0.00,,,0.00,WUHU216HW,2013-09-02 08:57:00,
2013-09-02 04:02:00,57.3,52.5,28.95,North,0,0.0,0.0,84,0.00,,,0.00,WUHU216HW,2013-09-02 09:02:00,
2013-09-02 04:07:00,57.3,52.5,28.95,North,0,0.0,0.0,84,0.00,,,0.00,WUHU216HW,2013-09-02 09:07:00,
2013-09-02 04:12:00,57.0,52.1,28.95,North,0,0.0,0.0,84,0.00,,,0.00,WUHU216HW,2013-09-02 09:12:00,
2013-09-02 04:17:00,57.0,52.1,28.95,North,0,0.0,0.0,84,0.00,,,0.00,WUHU216HW,2013-09-02 09:17:00,
2013-09-02 04:22:00,57.0,52.1,28.95,North,0,0.0,0.0,84,0.00,,,0.00,WUHU216HW,2013-09-02 09:22:00,
2013-09-02 04:27:00,56.8,52.0,28.95,North,0,0.0,0.0,84,0.00,,,0.00,WUHU216HW,2013-09-02 09:27:00,
2013-09-02 04:32:00,56.8,52.0,28.95,North,0,0.0,0.0,84,0.00,,,0.00,WUHU216HW,2013-09-02 09:32:00,
2013-09-02 04:37:00,56.4,51.6,28.95,North,0,0.0,0.0,84,0.00,,,0.00,WUHU216HW,2013-09-02 09:37:00,
2013-09-02 04:42:00,56.4,51.6,28.96,North,0,0.0,0.0,84,0.00,,,0.00,WUHU216HW,2013-09-02 09:42:00,
2013-09-02 04:47:00,56.4,51.6,28.96,North,0,0.0,0.0,84,0.00,,,0.00,WUHU216HW,2013-09-02 09:47:00,
2013-09-02 04:52:00,56.3,51.4,28.96,North,0,0.0,0.0,84,0.00,,,0.00,WUHU216HW,2013-09-02 09:52:00,
2013-09-02 04:57:00,56.1,51.2,28.97,North,0,0.0,0.0,84,0.00,,,0.00,WUHU216HW,2013-09-02 09:57:00,
2013-09-02 05:02:00,56.1,51.2,28.97,North,0,0.0,0.0,84,0.00,,,0.00,WUHU216HW,2013-09-02 10:02:00,
2013-09-02 05:07:00,56.1,51.2,28.97,North,0,0.0,0.0,84,0.00,,,0.00,WUHU216HW,2013-09-02 10:07:00,
2013-09-02 05:13:00,55.9,51.4,28.96,North,0,0.0,0.0,85,0.00,,,0.00,WUHU216HW,2013-09-02 10:13:00,
2013-09-02 05:18:00,55.9,51.4,28.96,North,0,0.0,0.0,85,0.00,,,0.00,WUHU216HW,2013-09-02 10:18:00,
2013-09-02 05:23:00,55.7,51.2,28.96,North,0,0.0,0.0,85,0.00,,,0.00,WUHU216HW,2013-09-02 10:23:00,
2013-09-02 05:28:00,55.7,51.2,28.96,North,0,0.0,0.0,85,0.00,,,0.00,WUHU216HW,2013-09-02 10:28:00,
2013-09-02 05:33:00,55.5,51.0,28.96,North,0,0.0,0.0,85,0.00,,,0.00,WUHU216HW,2013-09-02 10:33:00,
2013-09-02 05:38:00,55.5,51.0,28.96,North,0,0.0,0.0,85,0.00,,,0.00,WUHU216HW,2013-09-02 10:38:00,
2013-09-02 05:43:00,55.2,50.7,28.96,North,0,0.0,0.0,85,0.00,,,0.00,WUHU216HW,2013-09-02 10:43:00,
2013-09-02 05:48:00,55.2,50.7,28.96,North,0,0.0,0.0,85,0.00,,,0.00,WUHU216HW,2013-09-02 10:48:00,
2013-09-02 05:53:00,55.2,51.0,28.96,North,0,0.0,0.0,86,0.00,,,0.00,WUHU216HW,2013-09-02 10:53:00,
2013-09-02 05:58:00,55.0,50.8,28.96,North,0,0.0,0.0,86,0.00,,,0.00,WUHU216HW,2013-09-02 10:58:00,
2013-09-02 06:03:00,55.0,50.8,28.96,North,0,0.0,0.0,86,0.00,,,0.00,WUHU216HW,2013-09-02 11:03:00,
2013-09-02 06:08:00,55.0,50.8,28.96,North,0,0.0,0.0,86,0.00,,,0.00,WUHU216HW,2013-09-02 11:08:00,
2013-09-02 06:13:00,55.0,50.8,28.96,North,0,0.0,0.0,86,0.00,,,0.00,WUHU216HW,2013-09-02 11:13:00,
2013-09-02 06:18:00,54.8,51.0,28.97,North,0,0.0,0.0,87,0.00,,,0.00,WUHU216HW,2013-09-02 11:18:00,
2013-09-02 06:23:00,54.8,51.0,28.97,North,0,0.0,0.0,87,0.00,,,0.00,WUHU216HW,2013-09-02 11:23:00,
2013-09-02 06:28:00,54.8,51.0,28.97,North,0,0.0,0.0,87,0.00,,,0.00,WUHU216HW,2013-09-02 11:28:00,
2013-09-02 06:33:00,54.8,51.0,28.98,North,0,0.0,0.0,87,0.00,,,0.00,WUHU216HW,2013-09-02 11:33:00,
2013-09-02 06:38:00,55.0,51.1,28.98,North,0,0.0,0.0,87,0.00,,,0.00,WUHU216HW,2013-09-02 11:38:00,
2013-09-02 06:43:00,55.0,51.5,28.98,North,0,0.0,0.0,88,0.00,,,0.00,WUHU216HW,2013-09-02 11:43:00,
2013-09-02 06:49:00,55.0,51.5,28.98,North,0,0.0,0.0,88,0.00,,,0.00,WUHU216HW,2013-09-02 11:49:00,
2013-09-02 06:54:00,55.0,51.5,28.99,North,0,0.0,0.0,88,0.00,,,0.00,WUHU216HW,2013-09-02 11:54:00,
2013-09-02 06:59:00,55.0,51.5,28.99,North,0,0.0,0.0,88,0.00,,,0.00,WUHU216HW,2013-09-02 11:59:00,
2013-09-02 07:04:00,55.0,51.5,28.99,North,0,0.0,0.0,88,0.00,,,0.00,WUHU216HW,2013-09-02 12:04:00,
2013-09-02 07:09:00,55.2,52.0,28.99,North,0,0.0,0.0,89,0.00,,,0.00,WUHU216HW,2013-09-02 12:09:00,
2013-09-02 07:14:00,55.2,52.0,28.99,North,0,0.0,0.0,89,0.00,,,0.00,WUHU216HW,2013-09-02 12:14:00,
2013-09-02 07:19:00,55.2,52.0,29.00,North,0,0.0,0.0,89,0.00,,,0.00,WUHU216HW,2013-09-02 12:19:00,
2013-09-02 07:24:00,55.2,52.0,29.00,North,0,0.0,0.0,89,0.00,,,0.00,WUHU216HW,2013-09-02 12:24:00,
2013-09-02 07:29:00,55.4,52.1,29.00,North,0,0.0,0.0,89,0.00,,,0.00,WUHU216HW,2013-09-02 12:29:00,
2013-09-02 07:34:00,55.5,52.3,29.00,North,0,0.0,0.0,89,0.00,,,0.00,WUHU216HW,2013-09-02 12:34:00,
2013-09-02 07:39:00,55.5,52.3,29.00,North,0,0.0,0.0,89,0.00,,,0.00,WUHU216HW,2013-09-02 12:39:00,
2013-09-02 07:44:00,55.5,52.3,29.00,North,0,0.0,0.0,89,0.00,,,0.00,WUHU216HW,2013-09-02 12:44:00,
2013-09-02 07:49:00,55.9,52.4,29.00,North,0,0.0,0.0,88,0.00,,,0.00,WUHU216HW,2013-09-02 12:49:00,
2013-09-02 07:54:00,55.9,52.4,29.00,North,0,0.0,0.0,88,0.00,,,0.00,WUHU216HW,2013-09-02 12:54:00,
2013-09-02 07:59:00,56.1,52.5,29.00,North,0,0.0,0.0,88,0.00,,,0.00,WUHU216HW,2013-09-02 12:59:00,
2013-09-02 08:04:00,56.3,52.7,29.00,North,0,0.0,0.0,88,0.00,,,0.00,WUHU216HW,2013-09-02 13:04:00,
2013-09-02 08:09:00,56.4,52.9,29.00,North,0,0.0,0.0,88,0.00,,,0.00,WUHU216HW,2013-09-02 13:09:00,
2013-09-02 08:14:00,56.4,52.6,29.00,North,0,0.0,0.0,87,0.00,,,0.00,WUHU216HW,2013-09-02 13:14:00,
2013-09-02 08:19:00,56.6,52.8,29.01,North,0,0.0,0.0,87,0.00,,,0.00,WUHU216HW,2013-09-02 13:19:00,
2013-09-02 08:25:00,56.8,52.6,29.01,North,0,0.0,0.0,86,0.00,,,0.00,WUHU216HW,2013-09-02 13:25:00,
2013-09-02 08:30:00,57.0,52.8,29.01,North,0,0.0,0.0,86,0.00,,,0.00,WUHU216HW,2013-09-02 13:30:00,
2013-09-02 08:35:00,57.3,52.8,29.01,North,0,0.0,0.0,85,0.00,,,0.00,WUHU216HW,2013-09-02 13:35:00,
2013-09-02 08:40:00,57.3,52.8,29.01,North,0,0.0,0.0,85,0.00,,,0.00,WUHU216HW,2013-09-02 13:40:00,
2013-09-02 08:45:00,57.5,53.0,29.01,North,0,0.0,0.0,85,0.00,,,0.00,WUHU216HW,2013-09-02 13:45:00,
2013-09-02 08:50:00,57.7,52.9,29.01,North,0,0.0,0.0,84,0.00,,,0.00,WUHU216HW,2013-09-02 13:50:00,
2013-09-02 08:55:00,57.9,52.7,29.01,North,0,0.0,0.0,83,0.00,,,0.00,WUHU216HW,2013-09-02 13:55:00,
2013-09-02 09:00:00,58.1,52.9,29.01,North,0,0.0,0.0,83,0.00,,,0.00,WUHU216HW,2013-09-02 14:00:00,
2013-09-02 09:05:00,58.2,53.1,29.01,North,0,0.0,0.0,83,0.00,,,0.00,WUHU216HW,2013-09-02 14:05:00,
2013-09-02 09:10:00,58.8,53.3,29.02,North,0,0.0,0.0,82,0.00,,,0.00,WUHU216HW,2013-09-02 14:10:00,
2013-09-02 09:15:00,58.8,53.3,29.02,North,0,0.0,0.0,82,0.00,,,0.00,WUHU216HW,2013-09-02 14:15:00,
2013-09-02 09:20:00,58.8,53.3,29.02,NNE,23,0.0,0.0,82,0.00,,,0.00,WUHU216HW,2013-09-02 14:20:00,
2013-09-02 09:25:00,59.1,53.3,29.02,NNE,23,0.0,0.0,81,0.00,,,0.00,WUHU216HW,2013-09-02 14:25:00,
2013-09-02 09:31:00,59.5,53.7,29.01,NNE,23,0.0,0.0,81,0.00,,,0.00,WUHU216HW,2013-09-02 14:31:00,
2013-09-02 09:36:00,59.9,53.7,29.02,NNE,23,0.0,0.0,80,0.00,,,0.00,WUHU216HW,2013-09-02 14:36:00,
2013-09-02 09:41:00,60.0,53.7,29.02,NNE,23,0.0,0.0,79,0.00,,,0.00,WUHU216HW,2013-09-02 14:41:00,
2013-09-02 09:46:00,60.4,53.9,29.02,NNE,23,0.0,0.0,79,0.00,,,0.00,WUHU216HW,2013-09-02 14:46:00,
2013-09-02 09:51:00,60.9,54.1,29.02,NNE,23,0.0,0.0,78,0.00,,,0.00,WUHU216HW,2013-09-02 14:51:00,
2013-09-02 09:56:00,60.9,53.7,29.01,NNE,23,0.0,0.0,77,0.00,,,0.00,WUHU216HW,2013-09-02 14:56:00,
2013-09-02 10:01:00,60.9,53.7,29.01,NNE,23,0.0,0.0,77,0.00,,,0.00,WUHU216HW,2013-09-02 15:01:00,
2013-09-02 10:06:00,61.1,53.5,29.01,NE,45,0.0,0.0,76,0.00,,,0.00,WUHU216HW,2013-09-02 15:06:00,
2013-09-02 10:11:00,61.5,53.8,29.02,NE,45,0.0,0.0,76,0.00,,,0.00,WUHU216HW,2013-09-02 15:11:00,
2013-09-02 10:16:00,61.7,53.6,29.01,NE,45,0.0,0.0,75,0.00,,,0.00,WUHU216HW,2013-09-02 15:16:00,
2013-09-02 10:21:00,62.4,54.3,29.02,NE,45,0.0,0.0,75,0.00,,,0.00,WUHU216HW,2013-09-02 15:21:00,
2013-09-02 10:26:00,62.7,54.3,29.02,NE,45,0.0,0.0,74,0.00,,,0.00,WUHU216HW,2013-09-02 15:26:00,
2013-09-02 10:32:00,62.9,54.1,29.02,NE,45,0.0,0.0,73,0.00,,,0.00,WUHU216HW,2013-09-02 15:32:00,
2013-09-02 10:37:00,63.1,53.9,29.02,NE,45,0.0,0.0,72,0.00,,,0.00,WUHU216HW,2013-09-02 15:37:00,
2013-09-02 10:42:00,63.1,53.9,29.02,NE,45,0.0,0.0,72,0.00,,,0.00,WUHU216HW,2013-09-02 15:42:00,
2013-09-02 10:47:00,63.3,54.1,29.02,NE,45,0.0,0.0,72,0.00,,,0.00,WUHU216HW,2013-09-02 15:47:00,
2013-09-02 10:52:00,63.6,54.1,29.02,NE,45,0.0,0.0,71,0.00,,,0.00,WUHU216HW,2013-09-02 15:52:00,
2013-09-02 10:57:00,63.8,53.9,29.02,NE,45,0.0,0.0,70,0.00,,,0.00,WUHU216HW,2013-09-02 15:57:00,
2013-09-02 11:02:00,64.2,53.8,29.03,NE,45,0.0,0.0,69,0.00,,,0.00,WUHU216HW,2013-09-02 16:02:00,
2013-09-02 11:07:00,64.2,53.8,29.03,NE,45,0.0,0.0,69,0.00,,,0.00,WUHU216HW,2013-09-02 16:07:00,
2013-09-02 11:12:00,64.2,53.8,29.03,NE,45,0.0,0.0,69,0.00,,,0.00,WUHU216HW,2013-09-02 16:12:00,
2013-09-02 11:17:00,64.5,53.7,29.03,NE,45,0.0,0.0,68,0.00,,,0.00,WUHU216HW,2013-09-02 16:17:00,
2013-09-02 11:22:00,64.9,54.1,29.03,NE,45,0.0,0.0,68,0.00,,,0.00,WUHU216HW,2013-09-02 16:22:00,
2013-09-02 11:27:00,64.9,53.2,29.02,NE,45,0.0,0.0,66,0.00,,,0.00,WUHU216HW,2013-09-02 16:27:00,
2013-09-02 11:32:00,64.9,52.8,29.03,NE,45,0.0,0.0,65,0.00,,,0.00,WUHU216HW,2013-09-02 16:32:00,
2013-09-02 11:38:00,65.1,53.4,29.03,NE,45,0.0,0.0,66,0.00,,,0.00,WUHU216HW,2013-09-02 16:38:00,
2013-09-02 11:43:00,65.3,53.6,29.03,NE,45,0.0,0.0,64,0.00,,,0.00,WUHU216HW,2013-09-02 16:43:00,
2013-09-02 11:48:00,65.3,52.7,29.03,NNE,23,0.0,0.0,64,0.00,,,0.00,WUHU216HW,2013-09-02 16:48:00,
2013-09-02 11:53:00,65.8,53.2,29.03,NNE,23,0.0,0.0,64,0.00,,,0.00,WUHU216HW,2013-09-02 16:53:00,
2013-09-02 11:58:00,66.0,53.8,29.03,NNE,23,0.0,0.0,65,0.00,,,0.00,WUHU216HW,2013-09-02 16:58:00,
2013-09-02 12:03:00,66.3,53.7,29.02,NNE,23,0.0,0.0,64,0.00,,,0.00,WUHU216HW,2013-09-02 17:03:00,
2013-09-02 12:08:00,66.7,53.7,29.03,NNE,23,0.0,0.0,63,0.00,,,0.00,WUHU216HW,2013-09-02 17:08:00,
2013-09-02 12:13:00,66.7,53.7,29.03,NNE,23,0.0,0.0,63,0.00,,,0.00,WUHU216HW,2013-09-02 17:13:00,
2013-09-02 12:19:00,66.7,53.7,29.03,NNE,23,0.0,0.0,63,0.00,,,0.00,WUHU216HW,2013-09-02 17:19:00,
2013-09-02 12:24:00,66.9,53.4,29.02,NNW,338,0.0,0.0,62,0.00,,,0.00,WUHU216HW,2013-09-02 17:24:00,
2013-09-02 12:29:00,66.9,53.4,29.02,North,0,0.0,0.0,62,0.00,,,0.00,WUHU216HW,2013-09-02 17:29:00,
2013-09-02 12:34:00,67.1,53.6,29.02,North,0,0.0,0.0,62,0.00,,,0.00,WUHU216HW,2013-09-02 17:34:00,
2013-09-02 12:39:00,67.6,53.6,29.02,NNE,23,0.0,0.0,61,0.00,,,0.00,WUHU216HW,2013-09-02 17:39:00,
2013-09-02 12:44:00,67.8,54.2,29.02,NNE,23,0.0,0.0,62,0.00,,,0.00,WUHU216HW,2013-09-02 17:44:00,
2013-09-02 12:49:00,67.8,53.8,29.02,NNE,23,0.0,0.0,61,0.00,,,0.00,WUHU216HW,2013-09-02 17:49:00,
2013-09-02 12:54:00,68.0,53.1,29.01,NNE,23,0.0,0.0,59,0.00,,,0.00,WUHU216HW,2013-09-02 17:54:00,
2013-09-02 12:59:00,68.1,54.1,29.01,NE,45,7.8,7.8,61,0.00,,,0.00,WUHU216HW,2013-09-02 17:59:00,
2013-09-02 13:04:00,68.1,53.7,29.01,NE,45,0.0,7.8,60,0.00,,,0.00,WUHU216HW,2013-09-02 18:04:00,
2013-09-02 13:09:00,68.1,53.7,29.01,NE,45,0.0,0.0,60,0.00,,,0.00,WUHU216HW,2013-09-02 18:09:00,
2013-09-02 13:14:00,68.1,53.7,29.01,NE,45,0.0,0.0,60,0.00,,,0.00,WUHU216HW,2013-09-02 18:14:00,
2013-09-02 13:19:00,68.7,54.3,29.01,NE,45,0.0,0.0,60,0.00,,,0.00,WUHU216HW,2013-09-02 18:19:00,
2013-09-02 13:25:00,68.9,53.5,29.01,NE,45,0.0,0.0,58,0.00,,,0.00,WUHU216HW,2013-09-02 18:25:00,
2013-09-02 13:30:00,68.9,53.0,29.00,NNE,23,0.0,0.0,57,0.00,,,0.00,WUHU216HW,2013-09-02 18:30:00,
2013-09-02 13:35:00,69.0,53.6,29.00,NNE,23,0.0,0.0,58,0.00,,,0.00,WUHU216HW,2013-09-02 18:35:00,
2013-09-02 13:40:00,69.2,54.3,29.00,NNE,23,0.0,0.0,59,0.00,,,0.00,WUHU216HW,2013-09-02 18:40:00,
2013-09-02 13:45:00,69.4,54.0,29.00,NNE,23,0.0,0.0,58,0.00,,,0.00,WUHU216HW,2013-09-02 18:45:00,
2013-09-02 13:50:00,69.6,53.7,29.01,NNE,23,0.0,0.0,57,0.00,,,0.00,WUHU216HW,2013-09-02 18:50:00,
2013-09-02 13:55:00,69.4,54.0,29.01,NNE,23,0.0,0.0,58,0.00,,,0.00,WUHU216HW,2013-09-02 18:55:00,
2013-09-02 14:00:00,69.4,53.5,29.00,NNE,23,0.0,0.0,57,0.00,,,0.00,WUHU216HW,2013-09-02 19:00:00,
2013-09-02 14:05:00,69.4,53.5,29.00,NNE,23,0.0,0.0,57,0.00,,,0.00,WUHU216HW,2013-09-02 19:05:00,
2013-09-02 14:10:00,69.0,53.1,29.01,NNE,23,0.0,0.0,57,0.00,,,0.00,WUHU216HW,2013-09-02 19:10:00,
2013-09-02 14:15:00,69.2,53.8,29.00,NNE,23,0.0,0.0,58,0.00,,,0.00,WUHU216HW,2013-09-02 19:15:00,
2013-09-02 14:20:00,69.0,52.6,29.00,NNE,23,0.0,0.0,56,0.00,,,0.00,WUHU216HW,2013-09-02 19:20:00,
2013-09-02 14:25:00,69.4,53.0,29.00,NNE,23,0.0,0.0,56,0.00,,,0.00,WUHU216HW,2013-09-02 19:25:00,
2013-09-02 14:31:00,69.4,53.0,29.00,NNE,23,0.0,0.0,56,0.00,,,0.00,WUHU216HW,2013-09-02 19:31:00,
2013-09-02 14:36:00,69.6,53.7,29.00,NNE,23,0.0,0.0,57,0.00,,,0.00,WUHU216HW,2013-09-02 19:36:00,
2013-09-02 14:41:00,69.9,54.0,29.00,NNE,23,0.0,0.0,57,0.00,,,0.00,WUHU216HW,2013-09-02 19:41:00,
2013-09-02 14:46:00,70.3,54.3,29.00,NE,45,0.0,0.0,57,0.00,,,0.00,WUHU216HW,2013-09-02 19:46:00,
2013-09-02 14:51:00,70.5,54.5,28.99,NE,45,0.0,0.0,57,0.00,,,0.00,WUHU216HW,2013-09-02 19:51:00,
2013-09-02 14:56:00,70.5,53.5,29.00,NE,45,0.0,0.0,55,0.00,,,0.00,WUHU216HW,2013-09-02 19:56:00,
2013-09-02 15:01:00,70.3,53.3,28.99,NE,45,0.0,0.0,55,0.00,,,0.00,WUHU216HW,2013-09-02 20:01:00,
2013-09-02 15:06:00,70.1,53.7,28.99,NE,45,0.0,0.0,56,0.00,,,0.00,WUHU216HW,2013-09-02 20:06:00,
2013-09-02 15:11:00,70.1,54.2,29.00,NE,45,0.0,0.0,57,0.00,,,0.00,WUHU216HW,2013-09-02 20:11:00,
2013-09-02 15:16:00,70.3,53.8,29.00,NE,45,0.0,0.0,56,0.00,,,0.00,WUHU216HW,2013-09-02 20:16:00,
2013-09-02 15:21:00,70.3,54.3,28.99,NE,45,0.0,0.0,57,0.00,,,0.00,WUHU216HW,2013-09-02 20:21:00,
2013-09-02 15:26:00,70.5,54.5,28.99,NE,45,0.0,0.0,57,0.00,,,0.00,WUHU216HW,2013-09-02 20:26:00,
2013-09-02 15:32:00,70.5,54.5,28.99,NE,45,0.0,0.0,57,0.00,,,0.00,WUHU216HW,2013-09-02 20:32:00,
2013-09-02 15:37:00,70.5,54.0,28.99,NE,45,0.0,0.0,56,0.00,,,0.00,WUHU216HW,2013-09-02 20:37:00,
2013-09-02 15:42:00,70.3,53.8,28.99,NE,45,0.0,0.0,56,0.00,,,0.00,WUHU216HW,2013-09-02 20:42:00,
2013-09-02 15:47:00,70.3,53.8,28.99,NE,45,0.0,0.0,56,0.00,,,0.00,WUHU216HW,2013-09-02 20:47:00,
2013-09-02 15:52:00,70.3,53.8,28.99,NE,45,0.0,0.0,56,0.00,,,0.00,WUHU216HW,2013-09-02 20:52:00,
2013-09-02 15:57:00,70.5,54.5,28.98,NE,45,0.0,0.0,57,0.00,,,0.00,WUHU216HW,2013-09-02 20:57:00,
2013-09-02 16:02:00,70.5,54.5,28.98,NE,45,0.0,0.0,57,0.00,,,0.00,WUHU216HW,2013-09-02 21:02:00,
2013-09-02 16:07:00,70.3,54.8,28.98,NE,45,0.0,0.0,58,0.00,,,0.00,WUHU216HW,2013-09-02 21:07:00,
2013-09-02 16:12:00,70.3,54.8,28.98,NE,45,0.0,0.0,58,0.00,,,0.00,WUHU216HW,2013-09-02 21:12:00,
2013-09-02 16:17:00,70.3,54.3,28.98,NE,45,0.0,0.0,57,0.00,,,0.00,WUHU216HW,2013-09-02 21:17:00,
2013-09-02 16:22:00,69.9,54.5,28.98,NE,45,0.0,0.0,58,0.00,,,0.00,WUHU216HW,2013-09-02 21:22:00,
2013-09-02 16:27:00,69.8,54.8,28.98,NE,45,0.0,0.0,59,0.00,,,0.00,WUHU216HW,2013-09-02 21:27:00,
2013-09-02 16:33:00,69.8,54.8,28.98,NE,45,0.0,0.0,59,0.00,,,0.00,WUHU216HW,2013-09-02 21:33:00,
2013-09-02 16:38:00,69.6,54.7,28.98,NE,45,0.0,0.0,59,0.00,,,0.00,WUHU216HW,2013-09-02 21:38:00,
2013-09-02 16:43:00,69.8,54.8,28.98,NE,45,0.0,0.0,59,0.00,,,0.00,WUHU216HW,2013-09-02 21:43:00,
2013-09-02 16:48:00,69.6,54.7,28.99,NE,45,0.0,0.0,59,0.00,,,0.00,WUHU216HW,2013-09-02 21:48:00,
2013-09-02 16:53:00,69.4,54.5,28.98,NE,45,0.0,0.0,59,0.00,,,0.00,WUHU216HW,2013-09-02 21:53:00,
2013-09-02 16:58:00,69.2,54.8,28.99,NE,45,0.0,0.0,60,0.00,,,0.00,WUHU216HW,2013-09-02 21:58:00,
2013-09-02 17:03:00,69.2,54.8,28.98,NE,45,0.0,0.0,60,0.00,,,0.00,WUHU216HW,2013-09-02 22:03:00,
2013-09-02 17:08:00,69.0,55.0,28.99,NE,45,0.0,0.0,61,0.00,,,0.00,WUHU216HW,2013-09-02 22:08:00,
2013-09-02 17:13:00,69.0,55.0,28.99,NE,45,0.0,0.0,61,0.00,,,0.00,WUHU216HW,2013-09-02 22:13:00,
2013-09-02 17:18:00,69.0,55.0,28.98,NE,45,0.0,0.0,61,0.00,,,0.00,WUHU216HW,2013-09-02 22:18:00,
2013-09-02 17:23:00,68.7,55.1,28.99,NE,45,0.0,0.0,62,0.00,,,0.00,WUHU216HW,2013-09-02 22:23:00,
2013-09-02 17:28:00,68.7,55.1,28.98,ENE,68,0.0,0.0,62,0.00,,,0.00,WUHU216HW,2013-09-02 22:28:00,
2013-09-02 17:34:00,68.5,55.4,28.98,ENE,68,0.0,0.0,63,0.00,,,0.00,WUHU216HW,2013-09-02 22:34:00,
2013-09-02 17:39:00,68.3,55.2,28.98,ENE,68,0.0,0.0,63,0.00,,,0.00,WUHU216HW,2013-09-02 22:39:00,
2013-09-02 17:44:00,68.1,55.0,28.98,ENE,68,0.0,0.0,63,0.00,,,0.00,WUHU216HW,2013-09-02 22:44:00,
2013-09-02 17:49:00,68.0,54.8,28.98,ENE,68,0.0,0.0,63,0.00,,,0.00,WUHU216HW,2013-09-02 22:49:00,
2013-09-02 17:54:00,67.8,54.7,28.99,ENE,68,0.0,0.0,63,0.00,,,0.00,WUHU216HW,2013-09-02 22:54:00,
2013-09-02 17:59:00,67.6,54.3,28.98,ENE,68,0.0,0.0,63,0.00,,,0.00,WUHU216HW,2013-09-02 22:59:00,
2013-09-02 18:04:00,67.2,54.2,28.98,ENE,68,0.0,0.0,63,0.00,,,0.00,WUHU216HW,2013-09-02 23:04:00,
2013-09-02 18:09:00,67.2,54.2,28.98,ENE,68,0.0,0.0,63,0.00,,,0.00,WUHU216HW,2013-09-02 23:09:00,
2013-09-02 18:14:00,66.9,54.0,28.98,ENE,68,0.0,0.0,63,0.00,,,0.00,WUHU216HW,2013-09-02 23:14:00,
2013-09-02 18:19:00,66.9,54.3,28.99,ENE,68,0.0,0.0,64,0.00,,,0.00,WUHU216HW,2013-09-02 23:19:00,
2013-09-02 18:24:00,66.7,54.1,28.99,ENE,68,0.0,0.0,64,0.00,,,0.00,WUHU216HW,2013-09-02 23:24:00,
2013-09-02 18:30:00,66.5,54.3,28.99,ENE,68,0.0,0.0,65,0.00,,,0.00,WUHU216HW,2013-09-02 23:30:00,
2013-09-02 18:35:00,66.3,54.2,28.99,ENE,68,0.0,0.0,65,0.00,,,0.00,WUHU216HW,2013-09-02 23:35:00,
2013-09-02 18:40:00,66.3,54.2,28.99,ENE,68,0.0,0.0,65,0.00,,,0.00,WUHU216HW,2013-09-02 23:40:00,
2013-09-02 18:45:00,66.0,54.2,28.99,ENE,68,0.0,0.0,66,0.00,,,0.00,WUHU216HW,2013-09-02 23:45:00,
2013-09-02 18:50:00,66.0,54.2,28.99,ENE,68,0.0,0.0,66,0.00,,,0.00,WUHU216HW,2013-09-02 23:50:00,
2013-09-02 18:55:00,65.8,54.1,28.99,ENE,68,0.0,0.0,66,0.00,,,0.00,WUHU216HW,2013-09-02 23:55:00,
2013-09-02 19:00:00,65.4,53.7,28.99,ENE,68,0.0,0.0,66,0.00,,,0.00,WUHU216HW,2013-09-03 00:00:00,
2013-09-02 19:05:00,65.4,53.7,28.99,ENE,68,0.0,0.0,66,0.00,,,0.00,WUHU216HW,2013-09-03 00:05:00,
2013-09-02 19:10:00,65.1,53.4,28.99,ENE,68,0.0,0.0,66,0.00,,,0.00,WUHU216HW,2013-09-03 00:10:00,
2013-09-02 19:15:00,65.1,53.4,28.99,ENE,68,0.0,0.0,66,0.00,,,0.00,WUHU216HW,2013-09-03 00:15:00,
2013-09-02 19:20:00,64.9,53.2,28.99,ENE,68,0.0,0.0,66,0.00,,,0.00,WUHU216HW,2013-09-03 00:20:00,
2013-09-02 19:26:00,64.5,53.3,28.99,ENE,68,0.0,0.0,67,0.00,,,0.00,WUHU216HW,2013-09-03 00:26:00,
2013-09-02 19:31:00,64.4,53.2,28.99,ENE,68,0.0,0.0,67,0.00,,,0.00,WUHU216HW,2013-09-03 00:31:00,
2013-09-02 19:36:00,64.2,53.0,28.99,ENE,68,0.0,0.0,67,0.00,,,0.00,WUHU216HW,2013-09-03 00:36:00,
2013-09-02 19:41:00,64.0,52.8,28.99,ENE,68,0.0,0.0,67,0.00,,,0.00,WUHU216HW,2013-09-03 00:41:00,
2013-09-02 19:46:00,63.6,52.9,28.99,ENE,68,0.0,0.0,68,0.00,,,0.00,WUHU216HW,2013-09-03 00:46:00,
2013-09-02 19:51:00,63.5,52.5,28.99,ENE,68,0.0,0.0,68,0.00,,,0.00,WUHU216HW,2013-09-03 00:51:00,
2013-09-02 19:56:00,63.1,52.3,28.99,ENE,68,0.0,0.0,68,0.00,,,0.00,WUHU216HW,2013-09-03 00:56:00,
2013-09-02 20:01:00,63.1,52.2,28.99,ENE,68,0.0,0.0,69,0.00,,,0.00,WUHU216HW,2013-09-03 01:01:00,
2013-09-02 20:06:00,62.7,52.4,29.00,ENE,68,0.0,0.0,69,0.00,,,0.00,WUHU216HW,2013-09-03 01:06:00,
2013-09-02 20:11:00,62.6,52.2,28.99,ENE,68,0.0,0.0,69,0.00,,,0.00,WUHU216HW,2013-09-03 01:11:00,
2013-09-02 20:16:00,62.4,52.5,28.99,ENE,68,0.0,0.0,70,0.00,,,0.00,WUHU216HW,2013-09-03 01:16:00,
2013-09-02 20:21:00,62.4,52.5,29.00,ENE,68,0.0,0.0,70,0.00,,,0.00,WUHU216HW,2013-09-03 01:21:00,
2013-09-02 20:27:00,62.2,52.3,29.00,ENE,68,0.0,0.0,70,0.00,,,0.00,WUHU216HW,2013-09-03 01:27:00,
2013-09-02 20:32:00,61.8,52.0,29.00,ENE,68,0.0,0.0,70,0.00,,,0.00,WUHU216HW,2013-09-03 01:32:00,
2013-09-02 20:37:00,61.7,52.2,29.00,ENE,68,0.0,0.0,71,0.00,,,0.00,WUHU216HW,2013-09-03 01:37:00,
2013-09-02 20:42:00,61.5,52.0,29.00,ENE,68,0.0,0.0,71,0.00,,,0.00,WUHU216HW,2013-09-03 01:42:00,
2013-09-02 20:47:00,61.3,51.9,29.00,ENE,68,0.0,0.0,71,0.00,,,0.00,WUHU216HW,2013-09-03 01:47:00,
2013-09-02 20:52:00,61.3,51.9,29.00,ENE,68,0.0,0.0,71,0.00,,,0.00,WUHU216HW,2013-09-03 01:52:00,
2013-09-02 20:57:00,60.9,51.6,29.00,ENE,68,0.0,0.0,71,0.00,,,0.00,WUHU216HW,2013-09-03 01:57:00,
2013-09-02 21:02:00,60.9,51.6,29.00,ENE,68,0.0,0.0,71,0.00,,,0.00,WUHU216HW,2013-09-03 02:02:00,
2013-09-02 21:07:00,60.9,51.9,29.01,ENE,68,0.0,0.0,72,0.00,,,0.00,WUHU216HW,2013-09-03 02:07:00,
2013-09-02 21:12:00,60.6,51.9,29.01,ENE,68,0.0,0.0,73,0.00,,,0.00,WUHU216HW,2013-09-03 02:12:00,
2013-09-02 21:17:00,60.6,51.9,29.01,ENE,68,0.0,0.0,73,0.00,,,0.00,WUHU216HW,2013-09-03 02:17:00,
2013-09-02 21:22:00,60.6,51.9,29.01,ENE,68,0.0,0.0,73,0.00,,,0.00,WUHU216HW,2013-09-03 02:22:00,
2013-09-02 21:28:00,60.4,52.1,29.01,ENE,68,0.0,0.0,74,0.00,,,0.00,WUHU216HW,2013-09-03 02:28:00,
2013-09-02 21:33:00,60.4,52.1,29.01,ENE,68,0.0,0.0,74,0.00,,,0.00,WUHU216HW,2013-09-03 02:33:00,
2013-09-02 21:38:00,60.4,52.1,29.01,ENE,68,0.0,0.0,74,0.00,,,0.00,WUHU216HW,2013-09-03 02:38:00,
2013-09-02 21:43:00,60.2,51.9,29.01,ENE,68,0.0,0.0,74,0.00,,,0.00,WUHU216HW,2013-09-03 02:43:00,
2013-09-02 21:48:00,60.0,51.8,29.01,ENE,68,0.0,0.0,74,0.00,,,0.00,WUHU216HW,2013-09-03 02:48:00,
2013-09-02 21:53:00,59.7,51.4,29.01,ENE,68,0.0,0.0,74,0.00,,,0.00,WUHU216HW,2013-09-03 02:53:00,
2013-09-02 21:58:00,59.7,51.0,29.01,ENE,68,0.0,0.0,73,0.00,,,0.00,WUHU216HW,2013-09-03 02:58:00,
2013-09-02 22:03:00,59.7,51.0,29.01,ENE,68,0.0,0.0,73,0.00,,,0.00,WUHU216HW,2013-09-03 03:03:00,
2013-09-02 22:08:00,59.5,50.9,29.01,ENE,68,0.0,0.0,73,0.00,,,0.00,WUHU216HW,2013-09-03 03:08:00,
2013-09-02 22:13:00,59.3,50.7,29.01,ENE,68,0.0,0.0,73,0.00,,,0.00,WUHU216HW,2013-09-03 03:13:00,
2013-09-02 22:19:00,58.8,50.9,29.01,ENE,68,0.0,0.0,74,0.00,,,0.00,WUHU216HW,2013-09-03 03:19:00,
2013-09-02 22:24:00,58.8,50.5,29.01,ENE,68,0.0,0.0,74,0.00,,,0.00,WUHU216HW,2013-09-03 03:24:00,
2013-09-02 22:29:00,58.8,50.9,29.01,ENE,68,0.0,0.0,75,0.00,,,0.00,WUHU216HW,2013-09-03 03:29:00,
2013-09-02 22:34:00,58.2,50.7,29.01,ENE,68,0.0,0.0,75,0.00,,,0.00,WUHU216HW,2013-09-03 03:34:00,
2013-09-02 22:39:00,58.2,50.3,29.01,ENE,68,0.0,0.0,75,0.00,,,0.00,WUHU216HW,2013-09-03 03:39:00,
2013-09-02 22:44:00,57.9,50.0,29.01,ENE,68,0.0,0.0,75,0.00,,,0.00,WUHU216HW,2013-09-03 03:44:00,
2013-09-02 22:49:00,57.7,49.8,29.01,ENE,68,0.0,0.0,75,0.00,,,0.00,WUHU216HW,2013-09-03 03:49:00,
2013-09-02 22:54:00,57.5,50.0,29.01,ENE,68,0.0,0.0,76,0.00,,,0.00,WUHU216HW,2013-09-03 03:54:00,
2013-09-02 22:59:00,57.3,49.8,29.02,ENE,68,0.0,0.0,76,0.00,,,0.00,WUHU216HW,2013-09-03 03:59:00,
2013-09-02 23:01:00,57.3,49.8,29.01,ENE,68,0.0,0.0,76,0.00,,,0.00,WUHU216HW,2013-09-03 04:01:00,
2013-09-02 23:02:00,57.3,49.8,29.01,ENE,68,0.0,0.0,76,0.00,,,0.00,WUHU216HW,2013-09-03 04:02:00,
2013-09-02 23:03:00,57.3,49.8,29.01,ENE,68,0.0,0.0,76,0.00,,,0.00,WUHU216HW,2013-09-03 04:03:00,
2013-09-02 23:04:00,57.3,49.8,29.01,ENE,68,0.0,0.0,76,0.00,,,0.00,WUHU216HW,2013-09-03 04:04:00,
2013-09-02 23:09:00,57.2,49.6,29.01,ENE,68,0.0,0.0,76,0.00,,,0.00,WUHU216HW,2013-09-03 04:09:00,
2013-09-02 23:14:00,57.0,49.4,29.02,ENE,68,0.0,0.0,76,0.00,,,0.00,WUHU216HW,2013-09-03 04:14:00,
2013-09-02 23:19:00,57.0,49.8,29.01,ENE,68,0.0,0.0,77,0.00,,,0.00,WUHU216HW,2013-09-03 04:19:00,
2013-09-02 23:24:00,56.8,49.6,29.01,ENE,68,0.0,0.0,77,0.00,,,0.00,WUHU216HW,2013-09-03 04:24:00,
2013-09-02 23:29:00,56.4,49.6,29.01,ENE,68,0.0,0.0,78,0.00,,,0.00,WUHU216HW,2013-09-03 04:29:00,
2013-09-02 23:34:00,56.3,49.4,29.01,ENE,68,0.0,0.0,78,0.00,,,0.00,WUHU216HW,2013-09-03 04:34:00,
2013-09-02 23:39:00,56.3,49.4,29.01,ENE,68,0.0,0.0,78,0.00,,,0.00,WUHU216HW,2013-09-03 04:39:00,
2013-09-02 23:44:00,55.9,49.1,29.01,ENE,68,0.0,0.0,78,0.00,,,0.00,WUHU216HW,2013-09-03 04:44:00,
2013-09-02 23:49:00,55.9,49.1,29.01,ENE,68,0.0,0.0,78,0.00,,,0.00,WUHU216HW,2013-09-03 04:49:00,
2013-09-02 23:54:00,55.7,48.9,29.01,ENE,68,0.0,0.0,78,0.00,,,0.00,WUHU216HW,2013-09-03 04:54:00,